Time;durP1;ratioP1;P1;durP2;ratioP2;P2;SDS_P1;SDS_P2;PMS_P1;PMS_P2;Temp;Humidity;BMP_temperature;BMP_pressure;BME280_temperature;BME280_humidity;BME280_pressure;Samples;Min_cycle;Max_cycle;Signal;HPM_P1;HPM_P2
2021/12/28 00:00:24;;;;;;;74.37;29.67;;;;;;;-8.39;79.09;99579.75;2074546;83;21467;-68
2021/12/28 00:03:26;;;;;;;83.23;33.33;;;;;;;-8.37;79.15;99575.78;2089352;83;22017;-70
2021/12/28 00:06:27;;;;;;;82.60;30.60;;;;;;;-8.37;79.00;99562.91;2071482;83;21187;-70
2021/12/28 00:09:29;;;;;;;88.30;32.87;;;;;;;-8.37;79.10;99560.34;2081081;83;21064;-69
2021/12/28 00:12:33;;;;;;;67.07;27.60;;;;;;;-8.36;79.05;99568.47;2072691;83;21816;-70
2021/12/28 00:15:47;;;;;;;76.47;31.87;;;;;;;-8.32;79.06;99567.89;2078309;83;21635;-69
2021/12/28 00:18:38;;;;;;;71.57;27.73;;;;;;;-8.30;79.08;99568.22;2063142;83;21057;-69
2021/12/28 00:21:39;;;;;;;81.07;31.77;;;;;;;-8.31;79.14;99570.38;2071332;83;21093;-69
2021/12/28 00:24:42;;;;;;;81.03;31.00;;;;;;;-8.28;79.10;99568.97;2078953;83;21351;-72
2021/12/28 00:27:45;;;;;;;86.33;34.03;;;;;;;-8.28;79.08;99563.83;2071799;83;21074;-69
2021/12/28 00:30:48;;;;;;;83.43;31.67;;;;;;;-8.26;79.13;99567.19;2081242;83;21380;-71
2021/12/28 00:33:52;;;;;;;89.60;34.60;;;;;;;-8.26;79.02;99567.19;2098484;82;21144;-69
2021/12/28 00:36:53;;;;;;;83.87;33.13;;;;;;;-8.24;79.07;99558.13;2076702;82;21081;-72
2021/12/28 00:39:55;;;;;;;86.10;34.63;;;;;;;-8.22;79.07;99537.00;2081217;83;21034;-70
2021/12/28 00:42:57;;;;;;;81.63;31.67;;;;;;;-8.21;79.23;99547.25;2078711;82;21025;-68
2021/12/28 00:45:59;;;;;;;86.90;35.17;;;;;;;-8.19;79.11;99548.48;2066875;83;21938;-68
2021/12/28 00:49:02;;;;;;;81.87;32.73;;;;;;;-8.18;79.20;99545.83;2090157;82;21383;-68
2021/12/28 00:52:05;;;;;;;87.13;36.77;;;;;;;-8.16;79.23;99537.60;2077186;82;21123;-69
2021/12/28 00:55:09;;;;;;;84.60;36.80;;;;;;;-8.14;79.14;99533.66;2076680;83;21923;-71
2021/12/28 00:58:11;;;;;;;75.00;26.70;;;;;;;-8.15;79.22;99527.68;2061868;83;21393;-69
2021/12/28 01:01:12;;;;;;;93.07;36.07;;;;;;;-8.14;79.40;99528.09;2072658;83;21032;-68
2021/12/28 01:04:15;;;;;;;96.00;38.47;;;;;;;-8.14;79.26;99524.23;2071407;83;21096;-70
2021/12/28 01:07:16;;;;;;;77.77;32.13;;;;;;;-8.13;79.24;99523.31;2070865;83;21109;-69
2021/12/28 01:10:22;;;;;;;99.13;35.57;;;;;;;-8.12;79.35;99521.57;2073980;83;21094;-70
2021/12/28 01:13:25;;;;;;;94.73;36.37;;;;;;;-8.13;79.18;99518.63;2068253;82;21089;-69
2021/12/28 01:16:29;;;;;;;97.63;37.83;;;;;;;-8.13;79.18;99518.63;2066032;83;21061;-71
2021/12/28 01:19:33;;;;;;;96.10;38.17;;;;;;;-8.14;79.14;99524.23;2067116;83;21092;-69
2021/12/28 01:22:35;;;;;;;58.03;22.70;;;;;;;-8.15;79.08;99516.09;2062506;83;21853;-68
2021/12/28 01:25:38;;;;;;;82.47;36.13;;;;;;;-8.16;79.23;99511.86;2061370;83;21172;-69
2021/12/28 01:28:40;;;;;;;74.37;29.70;;;;;;;-8.17;79.25;99514.03;2085538;83;21125;-69
2021/12/28 01:31:41;;;;;;;86.13;34.77;;;;;;;-8.15;79.19;99516.55;2075978;82;21129;-69
2021/12/28 01:34:44;;;;;;;82.97;33.30;;;;;;;-8.15;79.20;99506.25;2080236;83;21136;-69
2021/12/28 01:37:47;;;;;;;68.03;25.87;;;;;;;-8.14;79.14;99525.94;2086149;83;21395;-69
2021/12/28 01:40:49;;;;;;;86.37;34.60;;;;;;;-8.15;79.19;99521.24;2083225;82;21198;-69
2021/12/28 01:44:05;;;;;;;94.73;37.47;;;;;;;-8.18;79.23;99528.27;2086404;83;21897;-69
2021/12/28 01:47:07;;;;;;;74.90;28.43;;;;;;;-8.17;79.06;99520.46;2074884;83;21388;-68
2021/12/28 01:50:10;;;;;;;83.83;34.03;;;;;;;-8.17;79.16;99514.03;2060314;83;21068;-69
2021/12/28 01:53:11;;;;;;;98.77;37.70;;;;;;;-8.17;79.16;99514.03;2061564;83;21200;-69
2021/12/28 01:56:18;;;;;;;75.83;30.80;;;;;;;-8.16;79.08;99504.14;2076263;83;21072;-69
2021/12/28 01:59:22;;;;;;;101.50;37.37;;;;;;;-8.17;79.12;99508.88;2083075;83;21054;-69
2021/12/28 02:02:24;;;;;;;90.63;39.13;;;;;;;-8.17;79.05;99507.59;2081339;83;21068;-68
2021/12/28 02:05:27;;;;;;;93.23;37.47;;;;;;;-8.17;79.13;99502.45;2060623;83;21894;-71
2021/12/28 02:08:28;;;;;;;85.23;34.93;;;;;;;-8.15;79.16;99508.83;2079077;82;21858;-69
2021/12/28 02:11:30;;;;;;;98.93;37.90;;;;;;;-8.17;79.16;99511.45;2066759;83;21198;-68
2021/12/28 02:14:31;;;;;;;81.37;27.57;;;;;;;-8.16;79.11;99506.71;2080641;83;21022;-70
2021/12/28 02:17:34;;;;;;;89.10;37.80;;;;;;;-8.14;79.17;99493.76;2075403;82;21244;-68
2021/12/28 02:20:37;;;;;;;91.87;35.73;;;;;;;-8.15;79.11;99492.92;2085383;82;21102;-70
2021/12/28 02:23:39;;;;;;;89.60;34.47;;;;;;;-8.14;79.18;99503.63;2067335;83;21168;-69
2021/12/28 02:26:41;;;;;;;85.77;32.50;;;;;;;-8.13;79.16;99496.28;2082164;83;21133;-68
2021/12/28 02:29:43;;;;;;;90.43;35.90;;;;;;;-8.17;78.81;99468.98;2077024;82;21446;-68
2021/12/28 02:32:47;;;;;;;80.63;29.87;;;;;;;-8.17;78.81;99468.98;2076943;83;21411;-69
2021/12/28 02:35:50;;;;;;;94.60;36.30;;;;;;;-8.21;78.84;99458.44;2060242;83;21886;-69
2021/12/28 02:38:52;;;;;;;93.30;37.73;;;;;;;-8.27;78.87;99464.30;2071602;83;21045;-68
2021/12/28 02:41:53;;;;;;;95.93;35.27;;;;;;;-8.29;78.98;99459.21;2044117;83;21049;-69
2021/12/28 02:45:13;;;;;;;90.50;38.83;;;;;;;-8.28;79.04;99466.02;2074240;83;21081;-68
2021/12/28 02:48:15;;;;;;;93.73;36.27;;;;;;;-8.30;79.07;99458.84;2075622;83;22123;-69
2021/12/28 02:51:16;;;;;;;86.70;36.40;;;;;;;-8.29;79.03;99470.79;2074708;83;21836;-71
2021/12/28 02:54:20;;;;;;;90.30;35.33;;;;;;;-8.25;79.03;99460.77;2074023;83;21101;-69
2021/12/28 02:57:21;;;;;;;87.40;36.97;;;;;;;-8.26;79.06;99455.67;2060907;83;21858;-69
2021/12/28 03:00:42;;;;;;;86.20;33.70;;;;;;;-8.26;79.09;99459.08;2061396;83;21116;-68
2021/12/28 03:03:47;;;;;;;93.93;38.67;;;;;;;-8.39;79.28;99429.63;2102316;83;21048;-68
2021/12/28 03:06:49;;;;;;;88.37;34.63;;;;;;;-8.39;79.28;99429.63;2076964;82;21068;-69
2021/12/28 03:09:52;;;;;;;82.57;30.50;;;;;;;-8.28;79.36;99442.02;2074926;83;21334;-69
2021/12/28 03:12:54;;;;;;;93.40;34.80;;;;;;;-8.39;79.28;99426.63;2075368;83;21591;-71
2021/12/28 03:15:56;;;;;;;86.07;33.57;;;;;;;-8.39;79.28;99426.63;2060431;82;21973;-68
2021/12/28 03:18:59;;;;;;;86.73;35.27;;;;;;;-8.30;79.15;99444.68;2083004;83;21368;-69
2021/12/28 03:22:01;;;;;;;90.07;36.63;;;;;;;-8.35;79.12;99435.02;2063676;83;21546;-70
2021/12/28 03:25:09;;;;;;;97.97;38.00;;;;;;;-8.30;79.19;99436.95;2072965;83;21047;-68
2021/12/28 03:28:20;;;;;;;89.07;35.77;;;;;;;-8.29;79.19;99441.19;2072298;83;21110;-70
2021/12/28 03:31:23;;;;;;;93.17;37.10;;;;;;;-8.29;79.10;99448.08;2076293;83;21129;-69
2021/12/28 03:34:24;;;;;;;92.37;37.80;;;;;;;-8.25;79.24;99441.47;2072442;83;21376;-69
2021/12/28 03:37:27;;;;;;;93.27;37.93;;;;;;;-8.21;79.24;99445.56;2069629;83;21073;-68
2021/12/28 03:40:28;;;;;;;91.20;37.30;;;;;;;-8.18;79.16;99439.00;2075827;83;21153;-69
2021/12/28 03:43:32;;;;;;;92.13;37.27;;;;;;;-8.19;79.11;99443.77;2067011;83;21162;-68
2021/12/28 03:46:33;;;;;;;98.20;38.60;;;;;;;-8.17;79.28;99450.95;2070964;83;21392;-68
2021/12/28 03:49:35;;;;;;;96.43;37.07;;;;;;;-8.17;79.28;99450.95;2068598;83;21086;-69
2021/12/28 03:52:40;;;;;;;76.30;29.63;;;;;;;-8.29;79.03;99423.17;2071138;83;21081;-68
2021/12/28 03:55:41;;;;;;;104.03;37.30;;;;;;;-8.22;79.02;99436.19;2078630;83;21648;-70
2021/12/28 03:58:45;;;;;;;96.27;40.73;;;;;;;-8.30;78.95;99430.52;2064520;83;21827;-69
2021/12/28 04:01:46;;;;;;;84.87;35.47;;;;;;;-8.39;78.91;99425.77;2056435;83;21325;-68
2021/12/28 04:04:48;;;;;;;88.20;36.57;;;;;;;-8.55;79.02;99423.02;2077745;83;21930;-69
2021/12/28 04:07:50;;;;;;;83.63;34.53;;;;;;;-8.61;79.24;99420.71;2067576;83;21086;-68
2021/12/28 04:10:55;;;;;;;88.97;35.00;;;;;;;-8.61;79.24;99420.71;2076751;82;21089;-69
2021/12/28 04:14:03;;;;;;;86.87;35.30;;;;;;;-8.68;79.26;99421.39;2075383;83;21089;-68
2021/12/28 04:17:04;;;;;;;93.47;35.77;;;;;;;-8.67;79.37;99419.23;2071774;82;21815;-70
2021/12/28 04:20:13;;;;;;;96.13;38.27;;;;;;;-8.67;79.38;99412.80;2082982;82;21011;-71
2021/12/28 04:23:14;;;;;;;79.53;33.97;;;;;;;-8.64;79.44;99411.84;2078520;83;21022;-70
2021/12/28 04:26:21;;;;;;;101.67;37.97;;;;;;;-8.65;79.47;99407.57;2085063;82;21147;-69
2021/12/28 04:29:22;;;;;;;98.37;38.40;;;;;;;-8.65;79.54;99396.83;2067668;83;21092;-68
2021/12/28 04:32:23;;;;;;;86.77;35.83;;;;;;;-8.66;79.53;99398.20;2066114;83;21403;-68
2021/12/28 04:35:25;;;;;;;97.10;40.80;;;;;;;-8.67;79.65;99394.80;2071837;83;21059;-68
2021/12/28 04:38:26;;;;;;;89.80;36.00;;;;;;;-8.69;79.69;99404.30;2082282;83;21883;-68
2021/12/28 04:41:29;;;;;;;100.20;38.90;;;;;;;-8.68;79.73;99391.81;2065043;83;21074;-70
2021/12/28 04:44:31;;;;;;;100.87;36.83;;;;;;;-8.68;79.76;99398.24;2069439;83;21074;-69
2021/12/28 04:47:33;;;;;;;93.30;38.70;;;;;;;-8.65;79.96;99394.25;2079249;83;21147;-68
2021/12/28 04:50:38;;;;;;;95.17;38.53;;;;;;;-8.62;79.95;99386.41;2090668;83;21344;-68
2021/12/28 04:53:39;;;;;;;91.83;35.67;;;;;;;-8.61;79.88;99389.39;2076625;83;21492;-68
2021/12/28 04:56:41;;;;;;;92.97;38.57;;;;;;;-8.58;79.86;99378.97;2081229;83;21125;-68
2021/12/28 04:59:42;;;;;;;96.67;37.07;;;;;;;-8.55;79.93;99375.89;2087477;83;21022;-70
2021/12/28 05:02:45;;;;;;;96.30;39.20;;;;;;;-8.55;79.84;99375.89;2078771;82;21408;-68
2021/12/28 05:05:50;;;;;;;86.70;35.33;;;;;;;-8.56;79.94;99368.59;2068633;83;21039;-69
2021/12/28 05:08:52;;;;;;;90.70;38.80;;;;;;;-8.68;79.87;99346.80;2080264;82;21056;-69
2021/12/28 05:11:54;;;;;;;96.23;41.07;;;;;;;-8.54;80.03;99366.80;2066956;83;21115;-68
2021/12/28 05:14:59;;;;;;;85.33;31.73;;;;;;;-8.50;80.22;99363.64;2080381;82;21931;-68
2021/12/28 05:17:59;;;;;;;103.77;41.40;;;;;;;-8.47;80.30;99364.37;2075415;83;21094;-70
2021/12/28 05:21:01;;;;;;;102.93;40.63;;;;;;;-8.41;80.31;99360.23;2073602;83;21013;-68
2021/12/28 05:24:05;;;;;;;115.63;44.33;;;;;;;-8.35;80.31;99365.08;2069836;83;21055;-69
2021/12/28 05:27:06;;;;;;;101.60;39.80;;;;;;;-8.29;80.40;99358.83;2081347;83;21072;-68
2021/12/28 05:30:09;;;;;;;93.63;38.13;;;;;;;-8.24;80.32;99358.19;2081622;82;22002;-68
2021/12/28 05:33:11;;;;;;;99.13;40.17;;;;;;;-8.20;80.35;99358.42;2066769;83;21100;-68
2021/12/28 05:36:13;;;;;;;101.13;41.23;;;;;;;-8.17;80.21;99356.17;2083326;83;21125;-69
2021/12/28 05:39:14;;;;;;;89.83;34.23;;;;;;;-8.10;80.38;99359.33;2063605;83;22889;-69
2021/12/28 05:42:16;;;;;;;90.97;35.20;;;;;;;-8.02;80.43;99364.98;2071986;83;21108;-70
2021/12/28 05:45:17;;;;;;;94.60;37.03;;;;;;;-7.92;80.61;99355.91;2075455;82;21074;-69
2021/12/28 05:48:19;;;;;;;98.57;40.80;;;;;;;-7.92;80.61;99355.91;2066149;83;21053;-70
2021/12/28 05:51:21;;;;;;;96.10;39.93;;;;;;;-7.87;80.40;99351.86;2069641;83;21966;-71
2021/12/28 05:54:22;;;;;;;104.40;40.53;;;;;;;-7.80;80.51;99357.92;2077224;83;21095;-69
2021/12/28 05:57:24;;;;;;;82.03;31.50;;;;;;;-7.80;80.69;99325.73;2087882;83;21085;-73
2021/12/28 06:00:28;;;;;;;91.87;37.07;;;;;;;-7.80;80.69;99325.73;2080734;83;21042;-68
2021/12/28 06:03:30;;;;;;;101.57;41.60;;;;;;;-7.65;80.66;99336.26;2075916;82;21384;-69
2021/12/28 06:06:31;;;;;;;110.63;44.17;;;;;;;-7.70;80.77;99306.83;2088362;82;21158;-69
2021/12/28 06:09:33;;;;;;;96.70;38.17;;;;;;;-7.70;80.77;99306.83;2086762;83;21384;-69
2021/12/28 06:12:34;;;;;;;84.00;33.67;;;;;;;-7.55;80.73;99329.75;2075847;83;21060;-69
2021/12/28 06:15:36;;;;;;;89.27;36.63;;;;;;;-7.48;80.74;99322.13;2058031;83;21120;-71
2021/12/28 06:18:38;;;;;;;71.57;29.10;;;;;;;-7.44;80.72;99317.19;2065433;83;21095;-69
2021/12/28 06:21:39;;;;;;;89.17;38.77;;;;;;;-7.50;80.78;99293.84;2068854;83;21061;-69
2021/12/28 06:24:41;;;;;;;86.87;36.83;;;;;;;-7.33;80.81;99316.23;2052759;83;21876;-73
2021/12/28 06:27:46;;;;;;;102.47;38.63;;;;;;;-7.27;80.93;99313.34;2071847;83;21376;-68
2021/12/28 06:30:47;;;;;;;99.50;37.90;;;;;;;-7.24;80.77;99315.77;2070196;83;21092;-70
2021/12/28 06:33:49;;;;;;;91.53;36.97;;;;;;;-7.20;80.85;99310.04;2076148;83;21881;-70
2021/12/28 06:36:50;;;;;;;77.37;29.37;;;;;;;-7.15;80.88;99306.78;2084108;82;21152;-69
2021/12/28 06:39:52;;;;;;;103.23;41.17;;;;;;;-7.12;80.86;99310.93;2063758;83;20971;-69
2021/12/28 06:42:54;;;;;;;95.13;38.03;;;;;;;-7.08;80.95;99315.87;2074095;83;21085;-69
2021/12/28 06:45:55;;;;;;;89.30;37.90;;;;;;;-7.04;80.96;99313.97;2086254;83;21851;-70
2021/12/28 06:48:57;;;;;;;93.67;38.80;;;;;;;-6.98;81.02;99312.41;2090103;83;21050;-69
2021/12/28 06:51:58;;;;;;;87.60;34.70;;;;;;;-6.93;81.00;99307.83;2078716;83;21519;-71
2021/12/28 06:55:00;;;;;;;95.83;39.60;;;;;;;-6.87;81.04;99308.84;2085809;82;21432;-72
2021/12/28 06:58:01;;;;;;;83.37;36.77;;;;;;;-6.84;80.99;99305.23;2078411;83;21979;-67
2021/12/28 07:01:04;;;;;;;91.37;37.60;;;;;;;-6.79;81.01;99314.41;2069544;83;21386;-70
2021/12/28 07:04:05;;;;;;;87.23;37.23;;;;;;;-6.72;81.15;99308.97;2069300;82;21846;-71
2021/12/28 07:07:07;;;;;;;97.63;36.97;;;;;;;-6.64;81.06;99308.13;2065016;83;21024;-72
2021/12/28 07:10:09;;;;;;;94.60;39.00;;;;;;;-6.60;80.95;99303.17;2066028;83;21071;-72
2021/12/28 07:13:11;;;;;;;90.73;37.47;;;;;;;-6.54;80.94;99309.31;2066086;82;21092;-73
2021/12/28 07:16:13;;;;;;;90.53;38.93;;;;;;;-6.49;80.93;99302.17;2073455;83;21010;-74
2021/12/28 07:19:14;;;;;;;82.93;35.20;;;;;;;-6.41;81.04;99308.23;2071254;82;21073;-72
2021/12/28 07:22:16;;;;;;;93.57;36.60;;;;;;;-6.35;80.93;99312.61;2073893;83;21198;-69
2021/12/28 07:25:18;;;;;;;91.07;36.53;;;;;;;-6.30;80.92;99302.05;2080682;83;21007;-72
2021/12/28 07:28:21;;;;;;;90.93;37.33;;;;;;;-6.24;80.94;99309.47;2083444;83;21143;-83
2021/12/28 07:31:22;;;;;;;88.23;36.77;;;;;;;-6.19;80.93;99299.74;2072833;83;21060;-71
2021/12/28 07:34:24;;;;;;;89.67;37.60;;;;;;;-6.13;80.95;99303.75;2077071;83;21068;-70
2021/12/28 07:37:25;;;;;;;92.37;38.67;;;;;;;-6.08;80.98;99309.51;2078468;82;21059;-71
2021/12/28 07:40:27;;;;;;;79.87;33.03;;;;;;;-6.04;80.92;99304.55;2071977;83;21131;-71
2021/12/28 07:43:28;;;;;;;98.33;38.97;;;;;;;-5.99;80.89;99294.80;2083332;83;21109;-72
2021/12/28 07:46:30;;;;;;;84.43;33.93;;;;;;;-5.95;80.84;99278.67;2074228;83;21769;-74
2021/12/28 07:49:31;;;;;;;82.13;35.83;;;;;;;-5.90;80.90;99294.27;2062371;83;21056;-72
2021/12/28 07:52:33;;;;;;;83.17;35.63;;;;;;;-5.80;80.91;99274.38;2078159;83;21061;-72
2021/12/28 07:55:35;;;;;;;96.87;39.70;;;;;;;-5.66;80.87;99280.91;2067672;83;21391;-73
2021/12/28 07:58:36;;;;;;;75.67;31.80;;;;;;;-5.56;80.70;99273.03;2068238;83;21078;-75
2021/12/28 08:01:38;;;;;;;92.90;39.63;;;;;;;-5.46;80.58;99281.95;2068686;83;21637;-74
2021/12/28 08:04:40;;;;;;;92.53;37.80;;;;;;;-5.38;80.54;99271.63;2089801;83;21639;-74
2021/12/28 08:07:42;;;;;;;75.90;33.17;;;;;;;-5.29;80.42;99273.70;2076063;83;21563;-75
2021/12/28 08:10:44;;;;;;;87.87;39.03;;;;;;;-5.18;80.38;99271.31;2058409;83;21135;-75
2021/12/28 08:13:46;;;;;;;84.03;37.83;;;;;;;-5.01;80.47;99276.37;2079139;83;21087;-75
2021/12/28 08:16:48;;;;;;;87.17;39.50;;;;;;;-4.84;80.25;99274.09;2083854;83;21025;-75
2021/12/28 08:19:49;;;;;;;82.80;35.48;;;;;;;-4.72;79.94;99272.53;2076385;83;21088;-70
2021/12/28 08:22:51;;;;;;;95.77;42.03;;;;;;;-4.56;79.82;99264.23;2079990;83;21471;-73
2021/12/28 08:25:53;;;;;;;89.85;40.00;;;;;;;-4.38;79.38;99254.51;2080292;83;21026;-75
2021/12/28 08:28:54;;;;;;;98.33;41.58;;;;;;;-4.21;79.60;99265.13;2070420;83;21092;-70
2021/12/28 08:31:56;;;;;;;91.15;39.90;;;;;;;-4.04;79.32;99260.67;2081143;83;21058;-69
2021/12/28 08:34:57;;;;;;;91.25;40.10;;;;;;;-3.73;79.34;99255.69;2083057;83;21040;-70
2021/12/28 08:37:59;;;;;;;89.28;40.80;;;;;;;-3.49;78.29;99252.84;2076078;83;21375;-72
2021/12/28 08:41:01;;;;;;;96.32;42.20;;;;;;;-3.36;78.48;99250.27;2074671;83;21093;-76
2021/12/28 08:44:03;;;;;;;88.78;41.02;;;;;;;-3.12;78.02;99257.39;2066059;83;21069;-76
2021/12/28 08:47:05;;;;;;;94.00;39.85;;;;;;;-2.96;78.17;99252.39;2072199;83;21056;-80
2021/12/28 08:50:09;;;;;;;95.42;41.90;;;;;;;-2.82;78.18;99245.41;2074460;83;21599;-75
2021/12/28 08:53:12;;;;;;;96.00;43.35;;;;;;;-2.81;77.29;99250.99;2084797;82;21048;-75
2021/12/28 08:56:14;;;;;;;93.12;42.35;;;;;;;-2.92;76.83;99260.80;2084188;83;21913;-75
2021/12/28 08:59:16;;;;;;;94.92;43.02;;;;;;;-3.10;77.09;99250.31;2067200;83;21043;-76
2021/12/28 09:02:17;;;;;;;92.90;41.23;;;;;;;-3.18;76.91;99251.67;2076786;83;21146;-77
2021/12/28 09:05:19;;;;;;;101.90;43.78;;;;;;;-3.35;77.10;99251.09;2087126;83;21630;-76
2021/12/28 09:08:21;;;;;;;88.37;38.75;;;;;;;-3.43;77.25;99236.05;2077578;83;21662;-75
2021/12/28 09:11:23;;;;;;;96.82;41.92;;;;;;;-3.49;77.17;99237.72;2077206;83;20993;-75
2021/12/28 09:14:24;;;;;;;95.47;43.98;;;;;;;-3.49;77.41;99232.53;2090227;82;21379;-76
2021/12/28 09:17:26;;;;;;;105.87;44.53;;;;;;;-3.34;77.71;99239.33;2078984;83;21101;-75
2021/12/28 09:20:27;;;;;;;98.37;43.13;;;;;;;-3.05;77.50;99230.09;2079161;83;21034;-75
2021/12/28 09:23:29;;;;;;;94.65;41.70;;;;;;;-2.83;77.42;99226.41;2089433;83;21006;-76
2021/12/28 09:26:31;;;;;;;94.55;43.08;;;;;;;-2.82;77.15;99211.19;2093592;82;21847;-75
2021/12/28 09:29:33;;;;;;;93.85;43.52;;;;;;;-2.80;77.09;99215.82;2076875;82;21553;-75
2021/12/28 09:32:35;;;;;;;105.72;44.05;;;;;;;-2.85;76.79;99202.78;2076057;83;21539;-75
2021/12/28 09:35:37;;;;;;;95.62;44.48;;;;;;;-2.88;76.77;99221.17;2089398;83;21046;-76
2021/12/28 09:38:38;;;;;;;96.63;42.55;;;;;;;-2.96;76.90;99219.08;2075012;83;21341;-76
2021/12/28 09:41:40;;;;;;;97.35;45.10;;;;;;;-3.03;76.66;99220.44;2087164;83;21344;-75
2021/12/28 09:44:42;;;;;;;105.63;45.35;;;;;;;-3.12;76.86;99224.95;2071663;83;21010;-75
2021/12/28 09:47:44;;;;;;;100.38;43.95;;;;;;;-3.16;76.82;99223.83;2069068;83;21176;-76
2021/12/28 09:50:46;;;;;;;99.65;44.83;;;;;;;-3.16;76.86;99220.41;2071082;82;21129;-75
2021/12/28 09:53:47;;;;;;;105.35;46.68;;;;;;;-3.17;77.03;99216.99;2066990;83;21113;-75
2021/12/28 09:56:49;;;;;;;102.62;46.10;;;;;;;-3.14;76.86;99213.84;2086868;83;21745;-75
2021/12/28 09:59:50;;;;;;;100.67;45.12;;;;;;;-3.14;76.99;99210.77;2070466;83;21580;-77
2021/12/28 10:02:53;;;;;;;102.67;46.13;;;;;;;-3.06;77.00;99203.78;2076309;83;21041;-75
2021/12/28 10:05:54;;;;;;;105.17;48.63;;;;;;;-3.00;77.13;99196.88;2082149;82;21051;-74
2021/12/28 10:09:15;;;;;;;96.72;42.20;;;;;;;-2.92;77.11;99195.89;2078861;83;21129;-77
2021/12/28 10:12:34;;;;;;;103.87;46.58;;;;;;;-2.83;77.01;99186.17;2012602;86;21053;-77
2021/12/28 10:15:39;;;;;;;107.83;46.85;;;;;;;-2.68;77.11;99186.88;2017067;85;21107;-73
2021/12/28 10:18:41;;;;;;;108.22;48.02;;;;;;;-2.54;77.14;99198.92;2017159;86;21077;-72
2021/12/28 10:21:42;;;;;;;104.70;48.63;;;;;;;-2.44;77.16;99190.03;2022459;86;21086;-72
2021/12/28 10:24:44;;;;;;;108.67;47.17;;;;;;;-2.35;77.04;99192.81;2020954;86;21015;-72
2021/12/28 10:28:03;;;;;;;105.78;46.40;;;;;;;-2.27;76.96;99184.01;2027988;85;21076;-72
2021/12/28 10:31:18;;;;;;;99.72;45.73;;;;;;;-2.16;76.57;99165.53;2013361;85;21080;-72
2021/12/28 10:34:20;;;;;;;92.95;41.20;;;;;;;-2.07;76.76;99165.70;2066187;83;21089;-72
2021/12/28 10:37:29;;;;;;;99.13;44.35;;;;;;;-1.96;76.29;99166.23;2067966;83;21981;-72
2021/12/28 10:40:36;;;;;;;102.15;46.45;;;;;;;-1.94;76.32;99155.26;2064651;83;21279;-73
2021/12/28 10:43:45;;;;;;;103.55;46.42;;;;;;;-1.95;76.19;99148.37;2079030;83;21068;-70
2021/12/28 10:46:45;;;;;;;99.80;44.55;;;;;;;-1.90;76.26;99154.55;2076273;83;21149;-71
2021/12/28 10:49:47;;;;;;;101.87;46.65;;;;;;;-1.85;76.05;99147.26;2064940;83;21050;-71
2021/12/28 10:53:00;;;;;;;104.32;45.12;;;;;;;-1.83;76.24;99141.00;2082186;83;21018;-74
2021/12/28 10:55:59;;;;;;;111.42;47.00;;;;;;;-1.77;76.38;99131.92;2082191;83;21094;-82
2021/12/28 10:59:02;;;;;;;115.32;49.98;;;;;;;-1.74;75.79;99130.88;2085856;83;21011;-73
2021/12/28 11:02:04;;;;;;;100.87;47.03;;;;;;;-1.72;75.79;99112.06;2071239;83;21085;-72
2021/12/28 11:05:28;;;;;;;103.10;45.70;;;;;;;-1.65;76.12;99115.41;2079715;83;21303;-73
2021/12/28 11:08:32;;;;;;;103.85;44.23;;;;;;;-1.62;75.70;99103.95;2066645;83;21029;-69
2021/12/28 11:11:35;;;;;;;98.40;44.35;;;;;;;-1.54;75.96;99090.38;2082889;83;21184;-71
2021/12/28 11:14:38;;;;;;;100.60;46.58;;;;;;;-1.49;74.76;99095.59;2093070;83;21887;-72
2021/12/28 11:17:39;;;;;;;110.28;48.08;;;;;;;-1.45;75.68;99089.20;2058865;83;21139;-71
2021/12/28 11:20:41;;;;;;;102.85;45.60;;;;;;;-1.44;75.41;99082.21;2064464;83;21103;-70
2021/12/28 11:23:45;;;;;;;104.65;45.38;;;;;;;-1.44;75.21;99066.13;2055742;83;21622;-71
2021/12/28 11:26:49;;;;;;;103.45;46.37;;;;;;;-1.42;75.20;99069.92;2072374;83;21047;-70
2021/12/28 11:29:51;;;;;;;98.67;42.58;;;;;;;-1.38;75.49;99068.73;2080916;83;21101;-72
2021/12/28 11:33:08;;;;;;;109.37;48.92;;;;;;;-1.30;75.26;99052.55;2078717;83;21031;-71
2021/12/28 11:36:11;;;;;;;101.38;45.43;;;;;;;-1.26;75.06;99052.20;2071767;83;21069;-71
2021/12/28 11:39:20;;;;;;;105.20;46.83;;;;;;;-1.20;75.33;99056.11;2052853;83;21020;-70
2021/12/28 11:42:23;;;;;;;107.35;47.53;;;;;;;-1.14;74.85;99047.82;2077130;83;21126;-71
2021/12/28 11:45:25;;;;;;;100.90;46.28;;;;;;;-1.06;75.24;99041.55;2062539;84;21164;-71
2021/12/28 11:48:27;;;;;;;99.65;46.13;;;;;;;-0.99;74.69;99030.17;2061855;83;21291;-70
2021/12/28 11:51:28;;;;;;;98.97;46.65;;;;;;;-0.96;74.66;99018.21;2066901;83;21109;-70
2021/12/28 11:54:34;;;;;;;105.80;48.10;;;;;;;-0.92;74.59;99026.16;2087534;83;21886;-71
2021/12/28 11:57:36;;;;;;;95.50;42.73;;;;;;;-0.85;74.93;99017.37;2075343;82;21091;-72
2021/12/28 12:00:41;;;;;;;105.95;46.77;;;;;;;-0.80;74.54;99011.33;2059123;83;21113;-70
2021/12/28 12:03:43;;;;;;;100.22;44.53;;;;;;;-0.78;74.61;99005.05;2077145;82;21049;-72
2021/12/28 12:07:05;;;;;;;100.50;47.58;;;;;;;-0.72;74.58;99003.26;2082314;82;21069;-71
2021/12/28 12:10:15;;;;;;;96.40;43.23;;;;;;;-0.69;74.67;98996.50;2067365;83;21170;-71
2021/12/28 12:13:27;;;;;;;89.13;41.08;;;;;;;-0.63;74.53;98993.88;2079944;83;21712;-71
2021/12/28 12:16:29;;;;;;;96.35;44.73;;;;;;;-0.58;74.40;98984.40;2086473;82;21583;-71
2021/12/28 12:19:46;;;;;;;103.15;48.45;;;;;;;-0.58;73.60;98978.70;2072558;83;21057;-71
2021/12/28 12:22:56;;;;;;;96.57;46.37;;;;;;;-0.53;74.57;98976.56;2073709;82;21080;-70
2021/12/28 12:26:02;;;;;;;102.42;47.00;;;;;;;-0.50;74.40;98975.48;2062209;83;21416;-70
2021/12/28 12:29:09;;;;;;;97.72;47.08;;;;;;;-0.52;74.08;98970.39;2067675;83;21030;-73
2021/12/28 12:32:11;;;;;;;97.80;43.10;;;;;;;-0.49;74.56;98965.41;2078914;83;21651;-71
2021/12/28 12:35:33;;;;;;;103.25;45.83;;;;;;;-0.49;74.01;98977.95;2079933;83;21549;-71
2021/12/28 12:38:36;;;;;;;97.72;45.60;;;;;;;-0.48;74.16;98978.77;2079596;83;21059;-71
2021/12/28 12:41:49;;;;;;;94.30;43.00;;;;;;;-0.47;74.29;98980.45;2094203;82;21115;-72
2021/12/28 12:44:50;;;;;;;94.35;43.83;;;;;;;-0.48;74.12;98986.59;2070573;83;21081;-72
2021/12/28 12:47:53;;;;;;;99.95;44.67;;;;;;;-0.49;74.27;98992.29;2067718;83;21024;-73
2021/12/28 12:51:15;;;;;;;97.33;44.63;;;;;;;-0.49;74.14;98990.98;2058776;83;21329;-73
2021/12/28 12:54:22;;;;;;;102.45;44.90;;;;;;;-0.48;74.42;98993.96;2065621;83;21112;-73
2021/12/28 12:57:29;;;;;;;101.82;44.18;;;;;;;-0.46;74.54;98982.91;2081906;83;21092;-73
2021/12/28 13:00:34;;;;;;;92.05;43.87;;;;;;;-0.45;74.44;98981.16;2069957;83;21184;-72
2021/12/28 13:03:35;;;;;;;92.12;43.52;;;;;;;-0.44;74.54;98985.41;2070681;83;21077;-73
2021/12/28 13:07:00;;;;;;;95.05;43.83;;;;;;;-0.43;74.62;98973.20;2069379;83;21077;-72
2021/12/28 13:10:15;;;;;;;100.05;43.95;;;;;;;-0.41;74.43;98980.43;2081910;83;21204;-74
2021/12/28 13:13:16;;;;;;;96.60;42.73;;;;;;;-0.39;74.74;98969.41;2072175;83;21032;-73
2021/12/28 13:16:18;;;;;;;88.25;41.42;;;;;;;-0.38;74.61;98969.75;2070330;83;21146;-72
2021/12/28 13:19:19;;;;;;;95.97;42.40;;;;;;;-0.36;74.64;98972.59;2069276;84;21169;-72
2021/12/28 13:22:21;;;;;;;91.35;40.80;;;;;;;-0.33;74.84;98967.60;2072409;82;21120;-73
2021/12/28 13:25:33;;;;;;;92.95;40.73;;;;;;;-0.30;74.85;98963.44;2083011;83;21162;-73
2021/12/28 13:28:35;;;;;;;91.20;39.67;;;;;;;-0.26;74.78;98968.73;2086150;82;21065;-72
2021/12/28 13:31:37;;;;;;;87.55;39.40;;;;;;;-0.22;74.55;98951.91;2083786;83;21327;-72
2021/12/28 13:35:06;;;;;;;96.35;40.10;;;;;;;-0.18;74.53;98955.08;2089425;83;21137;-73
2021/12/28 13:38:12;;;;;;;78.83;35.90;;;;;;;-0.13;74.84;98956.35;2077455;83;21040;-71
2021/12/28 13:41:14;;;;;;;83.33;39.60;;;;;;;-0.04;74.94;98954.27;2068190;83;21034;-74
2021/12/28 13:44:16;;;;;;;80.47;39.48;;;;;;;0.02;74.71;98954.73;2080011;83;21046;-73
2021/12/28 13:47:21;;;;;;;88.12;38.02;;;;;;;0.05;74.63;98949.25;2070109;83;21086;-73
2021/12/28 13:50:22;;;;;;;85.67;38.70;;;;;;;0.10;74.89;98947.09;2072751;82;21192;-72
2021/12/28 13:53:31;;;;;;;81.95;39.88;;;;;;;0.11;74.62;98946.94;2075468;83;21057;-74
2021/12/28 13:56:42;;;;;;;88.75;40.08;;;;;;;0.12;74.86;98946.48;2072814;83;21417;-73
2021/12/28 13:59:43;;;;;;;88.97;39.70;;;;;;;0.16;74.90;98954.39;2073280;83;21038;-73
2021/12/28 14:02:55;;;;;;;84.83;38.73;;;;;;;0.18;75.02;98936.84;2077546;82;21865;-72